sensor_id;sensor_type;location;lat;lon;timestamp;P1;durP1;ratioP1;P2;durP2;ratioP2
39400;SDS011;54391;50.000;7.360;2022-12-18T00:00:08;35.78;;;11.05;;
39400;SDS011;54391;50.000;7.360;2022-12-18T00:02:39;24.67;;;8.90;;
39400;SDS011;54391;50.000;7.360;2022-12-18T00:05:07;16.05;;;8.25;;
39400;SDS011;54391;50.000;7.360;2022-12-18T00:07:35;22.13;;;9.07;;
39400;SDS011;54391;50.000;7.360;2022-12-18T00:10:03;28.52;;;11.27;;
39400;SDS011;54391;50.000;7.360;2022-12-18T00:12:31;24.70;;;9.85;;
39400;SDS011;54391;50.000;7.360;2022-12-18T00:14:58;29.33;;;13.82;;
39400;SDS011;54391;50.000;7.360;2022-12-18T00:17:28;22.23;;;10.73;;
39400;SDS011;54391;50.000;7.360;2022-12-18T00:19:55;25.55;;;10.93;;
39400;SDS011;54391;50.000;7.360;2022-12-18T00:22:23;26.40;;;10.60;;
39400;SDS011;54391;50.000;7.360;2022-12-18T00:24:50;21.23;;;9.57;;
39400;SDS011;54391;50.000;7.360;2022-12-18T00:27:17;29.58;;;11.27;;
39400;SDS011;54391;50.000;7.360;2022-12-18T00:29:44;22.38;;;7.20;;
39400;SDS011;54391;50.000;7.360;2022-12-18T00:32:12;17.38;;;7.80;;
39400;SDS011;54391;50.000;7.360;2022-12-18T00:34:40;19.10;;;8.88;;
39400;SDS011;54391;50.000;7.360;2022-12-18T00:37:08;19.27;;;8.75;;
39400;SDS011;54391;50.000;7.360;2022-12-18T00:39:35;27.67;;;10.70;;
39400;SDS011;54391;50.000;7.360;2022-12-18T00:42:02;26.48;;;10.63;;
39400;SDS011;54391;50.000;7.360;2022-12-18T00:44:47;24.13;;;10.88;;
39400;SDS011;54391;50.000;7.360;2022-12-18T00:47:14;18.02;;;8.40;;
39400;SDS011;54391;50.000;7.360;2022-12-18T00:49:43;26.63;;;11.23;;
39400;SDS011;54391;50.000;7.360;2022-12-18T00:52:10;20.48;;;7.90;;
39400;SDS011;54391;50.000;7.360;2022-12-18T00:54:37;24.13;;;9.90;;
39400;SDS011;54391;50.000;7.360;2022-12-18T00:57:05;26.48;;;11.30;;
39400;SDS011;54391;50.000;7.360;2022-12-18T00:59:32;21.98;;;9.18;;
39400;SDS011;54391;50.000;7.360;2022-12-18T01:01:59;26.77;;;11.70;;
39400;SDS011;54391;50.000;7.360;2022-12-18T01:04:30;23.88;;;9.52;;
39400;SDS011;54391;50.000;7.360;2022-12-18T01:07:00;25.45;;;10.30;;
39400;SDS011;54391;50.000;7.360;2022-12-18T01:09:28;29.98;;;10.93;;
39400;SDS011;54391;50.000;7.360;2022-12-18T01:11:55;26.13;;;10.77;;
39400;SDS011;54391;50.000;7.360;2022-12-18T01:14:22;23.17;;;9.57;;
39400;SDS011;54391;50.000;7.360;2022-12-18T01:16:50;19.15;;;7.63;;
39400;SDS011;54391;50.000;7.360;2022-12-18T01:19:17;23.60;;;8.90;;
39400;SDS011;54391;50.000;7.360;2022-12-18T01:21:45;22.77;;;9.82;;
39400;SDS011;54391;50.000;7.360;2022-12-18T01:24:14;29.83;;;9.82;;
39400;SDS011;54391;50.000;7.360;2022-12-18T01:26:41;28.80;;;11.60;;
39400;SDS011;54391;50.000;7.360;2022-12-18T01:29:09;25.05;;;10.13;;
39400;SDS011;54391;50.000;7.360;2022-12-18T01:31:36;20.27;;;8.77;;
39400;SDS011;54391;50.000;7.360;2022-12-18T01:34:04;24.50;;;10.73;;
39400;SDS011;54391;50.000;7.360;2022-12-18T01:36:34;23.52;;;9.80;;
39400;SDS011;54391;50.000;7.360;2022-12-18T01:39:04;25.65;;;10.10;;
39400;SDS011;54391;50.000;7.360;2022-12-18T01:41:35;26.45;;;11.52;;
39400;SDS011;54391;50.000;7.360;2022-12-18T01:47:20;24.20;;;9.50;;
39400;SDS011;54391;50.000;7.360;2022-12-18T01:49:50;22.38;;;10.18;;
39400;SDS011;54391;50.000;7.360;2022-12-18T01:52:18;27.95;;;11.57;;
39400;SDS011;54391;50.000;7.360;2022-12-18T01:54:46;31.92;;;11.40;;
39400;SDS011;54391;50.000;7.360;2022-12-18T01:57:16;25.15;;;10.57;;
39400;SDS011;54391;50.000;7.360;2022-12-18T01:59:44;26.58;;;11.20;;
39400;SDS011;54391;50.000;7.360;2022-12-18T02:02:14;26.77;;;10.73;;
39400;SDS011;54391;50.000;7.360;2022-12-18T02:04:43;22.50;;;10.55;;
39400;SDS011;54391;50.000;7.360;2022-12-18T02:07:11;29.10;;;11.80;;
39400;SDS011;54391;50.000;7.360;2022-12-18T02:09:50;25.55;;;9.95;;
39400;SDS011;54391;50.000;7.360;2022-12-18T02:12:26;25.17;;;10.10;;
39400;SDS011;54391;50.000;7.360;2022-12-18T02:15:00;18.65;;;8.00;;
39400;SDS011;54391;50.000;7.360;2022-12-18T02:17:34;22.40;;;9.73;;
39400;SDS011;54391;50.000;7.360;2022-12-18T02:20:06;25.25;;;10.70;;
39400;SDS011;54391;50.000;7.360;2022-12-18T02:25:15;23.20;;;9.65;;
39400;SDS011;54391;50.000;7.360;2022-12-18T02:27:54;25.23;;;10.23;;
39400;SDS011;54391;50.000;7.360;2022-12-18T02:30:25;28.35;;;10.65;;
39400;SDS011;54391;50.000;7.360;2022-12-18T02:32:56;25.88;;;8.85;;
39400;SDS011;54391;50.000;7.360;2022-12-18T02:35:28;23.65;;;10.43;;
39400;SDS011;54391;50.000;7.360;2022-12-18T02:38:00;23.48;;;10.45;;
39400;SDS011;54391;50.000;7.360;2022-12-18T02:40:32;25.73;;;11.15;;
39400;SDS011;54391;50.000;7.360;2022-12-18T02:43:08;18.75;;;7.70;;
39400;SDS011;54391;50.000;7.360;2022-12-18T02:45:45;23.00;;;8.52;;
39400;SDS011;54391;50.000;7.360;2022-12-18T02:48:15;26.48;;;10.65;;
39400;SDS011;54391;50.000;7.360;2022-12-18T02:50:44;18.45;;;8.20;;
39400;SDS011;54391;50.000;7.360;2022-12-18T02:53:20;16.48;;;8.30;;
39400;SDS011;54391;50.000;7.360;2022-12-18T02:55:59;19.42;;;7.93;;
39400;SDS011;54391;50.000;7.360;2022-12-18T02:58:36;30.70;;;10.10;;
39400;SDS011;54391;50.000;7.360;2022-12-18T03:01:18;23.23;;;8.20;;
39400;SDS011;54391;50.000;7.360;2022-12-18T03:03:51;25.17;;;10.70;;
39400;SDS011;54391;50.000;7.360;2022-12-18T03:06:23;21.40;;;8.82;;
39400;SDS011;54391;50.000;7.360;2022-12-18T03:08:56;22.85;;;8.63;;
39400;SDS011;54391;50.000;7.360;2022-12-18T03:11:30;11.60;;;5.60;;
39400;SDS011;54391;50.000;7.360;2022-12-18T03:14:20;27.95;;;10.23;;
39400;SDS011;54391;50.000;7.360;2022-12-18T03:16:50;29.38;;;11.20;;
39400;SDS011;54391;50.000;7.360;2022-12-18T03:19:22;26.60;;;10.50;;
39400;SDS011;54391;50.000;7.360;2022-12-18T03:21:57;25.67;;;11.57;;
39400;SDS011;54391;50.000;7.360;2022-12-18T03:24:35;26.73;;;11.45;;
39400;SDS011;54391;50.000;7.360;2022-12-18T03:27:06;26.25;;;10.18;;
39400;SDS011;54391;50.000;7.360;2022-12-18T03:29:38;26.50;;;11.45;;
39400;SDS011;54391;50.000;7.360;2022-12-18T03:32:12;24.55;;;9.82;;
39400;SDS011;54391;50.000;7.360;2022-12-18T03:34:45;31.13;;;11.05;;
39400;SDS011;54391;50.000;7.360;2022-12-18T03:37:18;29.50;;;11.18;;
39400;SDS011;54391;50.000;7.360;2022-12-18T03:39:46;28.85;;;11.40;;
39400;SDS011;54391;50.000;7.360;2022-12-18T03:42:15;30.30;;;10.80;;
39400;SDS011;54391;50.000;7.360;2022-12-18T03:47:25;21.73;;;8.63;;
39400;SDS011;54391;50.000;7.360;2022-12-18T03:50:03;21.05;;;8.30;;
39400;SDS011;54391;50.000;7.360;2022-12-18T03:52:44;32.72;;;10.95;;
39400;SDS011;54391;50.000;7.360;2022-12-18T03:55:16;31.00;;;11.90;;
39400;SDS011;54391;50.000;7.360;2022-12-18T03:57:48;27.05;;;10.55;;
39400;SDS011;54391;50.000;7.360;2022-12-18T04:00:20;28.17;;;11.35;;
39400;SDS011;54391;50.000;7.360;2022-12-18T04:05:29;28.83;;;9.52;;
39400;SDS011;54391;50.000;7.360;2022-12-18T04:08:00;15.65;;;7.45;;
39400;SDS011;54391;50.000;7.360;2022-12-18T04:10:31;28.33;;;9.52;;
39400;SDS011;54391;50.000;7.360;2022-12-18T04:13:00;25.42;;;10.27;;
39400;SDS011;54391;50.000;7.360;2022-12-18T04:15:30;18.75;;;9.45;;
39400;SDS011;54391;50.000;7.360;2022-12-18T04:18:02;13.52;;;5.05;;
39400;SDS011;54391;50.000;7.360;2022-12-18T04:20:37;25.85;;;9.80;;
39400;SDS011;54391;50.000;7.360;2022-12-18T04:23:04;26.08;;;10.18;;
39400;SDS011;54391;50.000;7.360;2022-12-18T04:25:31;24.73;;;8.93;;
39400;SDS011;54391;50.000;7.360;2022-12-18T04:28:09;21.17;;;8.00;;
39400;SDS011;54391;50.000;7.360;2022-12-18T04:30:39;23.63;;;10.07;;
39400;SDS011;54391;50.000;7.360;2022-12-18T04:33:08;29.45;;;11.88;;
39400;SDS011;54391;50.000;7.360;2022-12-18T04:35:37;28.63;;;10.50;;
39400;SDS011;54391;50.000;7.360;2022-12-18T04:38:05;18.45;;;8.45;;
39400;SDS011;54391;50.000;7.360;2022-12-18T04:40:33;21.65;;;9.10;;
39400;SDS011;54391;50.000;7.360;2022-12-18T04:43:03;29.35;;;12.13;;
39400;SDS011;54391;50.000;7.360;2022-12-18T04:45:30;21.95;;;9.00;;
39400;SDS011;54391;50.000;7.360;2022-12-18T04:47:59;24.70;;;11.05;;
39400;SDS011;54391;50.000;7.360;2022-12-18T04:50:29;21.88;;;7.70;;
39400;SDS011;54391;50.000;7.360;2022-12-18T04:52:57;22.23;;;8.57;;
39400;SDS011;54391;50.000;7.360;2022-12-18T04:55:25;32.00;;;11.30;;
39400;SDS011;54391;50.000;7.360;2022-12-18T04:57:52;22.73;;;9.02;;
39400;SDS011;54391;50.000;7.360;2022-12-18T05:00:20;18.60;;;9.32;;
39400;SDS011;54391;50.000;7.360;2022-12-18T05:02:47;30.33;;;12.35;;
39400;SDS011;54391;50.000;7.360;2022-12-18T05:05:16;29.92;;;8.48;;
39400;SDS011;54391;50.000;7.360;2022-12-18T05:07:44;33.47;;;11.75;;
39400;SDS011;54391;50.000;7.360;2022-12-18T05:10:11;32.83;;;12.75;;
39400;SDS011;54391;50.000;7.360;2022-12-18T05:12:38;28.55;;;10.77;;
39400;SDS011;54391;50.000;7.360;2022-12-18T05:15:23;25.77;;;10.02;;
39400;SDS011;54391;50.000;7.360;2022-12-18T05:17:51;19.65;;;7.90;;
39400;SDS011;54391;50.000;7.360;2022-12-18T05:20:20;32.80;;;14.23;;
39400;SDS011;54391;50.000;7.360;2022-12-18T05:22:47;32.47;;;11.93;;
39400;SDS011;54391;50.000;7.360;2022-12-18T05:25:15;22.65;;;8.77;;
39400;SDS011;54391;50.000;7.360;2022-12-18T05:27:42;22.40;;;8.13;;
39400;SDS011;54391;50.000;7.360;2022-12-18T05:30:10;23.02;;;9.20;;
39400;SDS011;54391;50.000;7.360;2022-12-18T05:32:38;26.58;;;10.93;;
39400;SDS011;54391;50.000;7.360;2022-12-18T05:35:06;21.35;;;8.98;;
39400;SDS011;54391;50.000;7.360;2022-12-18T05:37:36;20.67;;;9.13;;
39400;SDS011;54391;50.000;7.360;2022-12-18T05:40:04;33.55;;;12.60;;
39400;SDS011;54391;50.000;7.360;2022-12-18T05:42:32;20.02;;;8.27;;
39400;SDS011;54391;50.000;7.360;2022-12-18T05:44:59;21.60;;;8.10;;
39400;SDS011;54391;50.000;7.360;2022-12-18T05:47:27;30.52;;;10.45;;
39400;SDS011;54391;50.000;7.360;2022-12-18T05:49:54;39.83;;;12.73;;
39400;SDS011;54391;50.000;7.360;2022-12-18T05:52:22;24.40;;;10.35;;
39400;SDS011;54391;50.000;7.360;2022-12-18T05:54:51;32.90;;;11.45;;
39400;SDS011;54391;50.000;7.360;2022-12-18T05:57:18;20.30;;;7.18;;
39400;SDS011;54391;50.000;7.360;2022-12-18T05:59:45;29.98;;;12.38;;
39400;SDS011;54391;50.000;7.360;2022-12-18T06:02:13;28.30;;;10.95;;
39400;SDS011;54391;50.000;7.360;2022-12-18T06:04:40;33.72;;;11.48;;
39400;SDS011;54391;50.000;7.360;2022-12-18T06:07:08;34.83;;;13.40;;
39400;SDS011;54391;50.000;7.360;2022-12-18T06:09:35;35.35;;;11.18;;
39400;SDS011;54391;50.000;7.360;2022-12-18T06:12:04;31.42;;;11.45;;
39400;SDS011;54391;50.000;7.360;2022-12-18T06:14:32;21.67;;;9.50;;
39400;SDS011;54391;50.000;7.360;2022-12-18T06:16:59;32.15;;;11.63;;
39400;SDS011;54391;50.000;7.360;2022-12-18T06:19:28;25.40;;;10.40;;
39400;SDS011;54391;50.000;7.360;2022-12-18T06:21:55;25.60;;;10.27;;
39400;SDS011;54391;50.000;7.360;2022-12-18T06:24:24;38.83;;;13.85;;
39400;SDS011;54391;50.000;7.360;2022-12-18T06:26:51;27.98;;;11.20;;
39400;SDS011;54391;50.000;7.360;2022-12-18T06:29:20;30.10;;;12.73;;
39400;SDS011;54391;50.000;7.360;2022-12-18T06:31:47;42.03;;;11.95;;
39400;SDS011;54391;50.000;7.360;2022-12-18T06:34:14;55.97;;;19.02;;
39400;SDS011;54391;50.000;7.360;2022-12-18T06:36:42;28.63;;;11.88;;
39400;SDS011;54391;50.000;7.360;2022-12-18T06:39:09;31.50;;;12.68;;
39400;SDS011;54391;50.000;7.360;2022-12-18T06:41:36;49.63;;;17.48;;
39400;SDS011;54391;50.000;7.360;2022-12-18T06:44:04;42.70;;;14.75;;
39400;SDS011;54391;50.000;7.360;2022-12-18T06:46:33;30.80;;;12.07;;
39400;SDS011;54391;50.000;7.360;2022-12-18T06:49:02;36.97;;;14.35;;
39400;SDS011;54391;50.000;7.360;2022-12-18T06:51:29;40.75;;;15.48;;
39400;SDS011;54391;50.000;7.360;2022-12-18T06:53:56;46.05;;;14.90;;
39400;SDS011;54391;50.000;7.360;2022-12-18T06:56:24;33.58;;;12.60;;
39400;SDS011;54391;50.000;7.360;2022-12-18T06:58:51;36.03;;;12.23;;
39400;SDS011;54391;50.000;7.360;2022-12-18T07:01:18;35.85;;;13.70;;
39400;SDS011;54391;50.000;7.360;2022-12-18T07:03:47;38.70;;;15.32;;
39400;SDS011;54391;50.000;7.360;2022-12-18T07:06:19;43.33;;;17.80;;
39400;SDS011;54391;50.000;7.360;2022-12-18T07:08:48;25.60;;;10.57;;
39400;SDS011;54391;50.000;7.360;2022-12-18T07:11:17;25.38;;;12.65;;
39400;SDS011;54391;50.000;7.360;2022-12-18T07:13:45;32.75;;;13.30;;
39400;SDS011;54391;50.000;7.360;2022-12-18T07:16:14;36.60;;;13.10;;
39400;SDS011;54391;50.000;7.360;2022-12-18T07:18:42;37.28;;;14.15;;
39400;SDS011;54391;50.000;7.360;2022-12-18T07:21:11;32.28;;;13.02;;
39400;SDS011;54391;50.000;7.360;2022-12-18T07:23:42;31.58;;;12.30;;
39400;SDS011;54391;50.000;7.360;2022-12-18T07:26:10;26.08;;;11.38;;
39400;SDS011;54391;50.000;7.360;2022-12-18T07:28:39;25.77;;;8.88;;
39400;SDS011;54391;50.000;7.360;2022-12-18T07:31:08;32.58;;;13.65;;
39400;SDS011;54391;50.000;7.360;2022-12-18T07:33:37;31.20;;;13.40;;
39400;SDS011;54391;50.000;7.360;2022-12-18T07:36:05;33.80;;;14.90;;
39400;SDS011;54391;50.000;7.360;2022-12-18T07:38:35;38.65;;;15.48;;
39400;SDS011;54391;50.000;7.360;2022-12-18T07:41:03;29.75;;;12.65;;
39400;SDS011;54391;50.000;7.360;2022-12-18T07:43:32;34.05;;;12.18;;
39400;SDS011;54391;50.000;7.360;2022-12-18T07:45:59;32.35;;;11.35;;
39400;SDS011;54391;50.000;7.360;2022-12-18T07:48:27;28.38;;;12.65;;
39400;SDS011;54391;50.000;7.360;2022-12-18T07:50:57;29.15;;;13.68;;
39400;SDS011;54391;50.000;7.360;2022-12-18T07:53:28;30.42;;;13.20;;
39400;SDS011;54391;50.000;7.360;2022-12-18T07:56:02;29.00;;;11.00;;
39400;SDS011;54391;50.000;7.360;2022-12-18T07:58:31;30.15;;;13.98;;
39400;SDS011;54391;50.000;7.360;2022-12-18T08:01:03;33.10;;;13.57;;
39400;SDS011;54391;50.000;7.360;2022-12-18T08:03:31;38.03;;;11.65;;
39400;SDS011;54391;50.000;7.360;2022-12-18T08:05:59;28.15;;;12.30;;
39400;SDS011;54391;50.000;7.360;2022-12-18T08:08:29;36.13;;;14.20;;
39400;SDS011;54391;50.000;7.360;2022-12-18T08:10:56;20.02;;;9.38;;
39400;SDS011;54391;50.000;7.360;2022-12-18T08:13:26;30.63;;;11.68;;
39400;SDS011;54391;50.000;7.360;2022-12-18T08:15:56;32.85;;;13.98;;
39400;SDS011;54391;50.000;7.360;2022-12-18T08:18:25;24.45;;;10.80;;
39400;SDS011;54391;50.000;7.360;2022-12-18T08:20:52;31.52;;;13.55;;
39400;SDS011;54391;50.000;7.360;2022-12-18T08:23:20;36.42;;;12.93;;
39400;SDS011;54391;50.000;7.360;2022-12-18T08:25:47;25.52;;;11.85;;
39400;SDS011;54391;50.000;7.360;2022-12-18T08:28:15;30.70;;;11.70;;
39400;SDS011;54391;50.000;7.360;2022-12-18T08:30:44;26.83;;;11.05;;
39400;SDS011;54391;50.000;7.360;2022-12-18T08:33:14;33.40;;;14.93;;
39400;SDS011;54391;50.000;7.360;2022-12-18T08:35:41;27.88;;;14.00;;
39400;SDS011;54391;50.000;7.360;2022-12-18T08:38:09;25.02;;;10.50;;
39400;SDS011;54391;50.000;7.360;2022-12-18T08:40:36;27.98;;;12.50;;
39400;SDS011;54391;50.000;7.360;2022-12-18T08:43:03;37.00;;;12.15;;
39400;SDS011;54391;50.000;7.360;2022-12-18T08:46:01;28.85;;;12.88;;
39400;SDS011;54391;50.000;7.360;2022-12-18T08:48:28;29.73;;;14.07;;
39400;SDS011;54391;50.000;7.360;2022-12-18T08:50:56;39.00;;;16.85;;
39400;SDS011;54391;50.000;7.360;2022-12-18T08:53:24;29.40;;;11.63;;
39400;SDS011;54391;50.000;7.360;2022-12-18T08:55:53;35.97;;;14.02;;
39400;SDS011;54391;50.000;7.360;2022-12-18T08:58:20;26.48;;;11.63;;
39400;SDS011;54391;50.000;7.360;2022-12-18T09:00:47;32.85;;;14.10;;
39400;SDS011;54391;50.000;7.360;2022-12-18T09:03:17;38.80;;;16.00;;
39400;SDS011;54391;50.000;7.360;2022-12-18T09:05:45;24.38;;;11.20;;
39400;SDS011;54391;50.000;7.360;2022-12-18T09:08:13;26.17;;;11.93;;
39400;SDS011;54391;50.000;7.360;2022-12-18T09:10:41;29.05;;;11.40;;
39400;SDS011;54391;50.000;7.360;2022-12-18T09:13:09;25.38;;;12.27;;
39400;SDS011;54391;50.000;7.360;2022-12-18T09:15:40;28.10;;;11.93;;
39400;SDS011;54391;50.000;7.360;2022-12-18T09:18:08;35.85;;;13.95;;
39400;SDS011;54391;50.000;7.360;2022-12-18T09:20:37;28.45;;;13.05;;
39400;SDS011;54391;50.000;7.360;2022-12-18T09:23:05;29.70;;;12.75;;
39400;SDS011;54391;50.000;7.360;2022-12-18T09:25:33;26.48;;;13.63;;
39400;SDS011;54391;50.000;7.360;2022-12-18T09:28:01;32.03;;;13.75;;
39400;SDS011;54391;50.000;7.360;2022-12-18T09:30:29;30.67;;;12.57;;
39400;SDS011;54391;50.000;7.360;2022-12-18T09:32:58;29.63;;;13.05;;
39400;SDS011;54391;50.000;7.360;2022-12-18T09:35:27;34.95;;;16.98;;
39400;SDS011;54391;50.000;7.360;2022-12-18T09:37:55;32.88;;;14.85;;
39400;SDS011;54391;50.000;7.360;2022-12-18T09:40:23;40.80;;;14.57;;
39400;SDS011;54391;50.000;7.360;2022-12-18T09:42:56;29.17;;;14.02;;
39400;SDS011;54391;50.000;7.360;2022-12-18T09:45:29;25.63;;;10.55;;
39400;SDS011;54391;50.000;7.360;2022-12-18T09:48:04;29.90;;;13.18;;
39400;SDS011;54391;50.000;7.360;2022-12-18T09:50:35;29.85;;;14.18;;
39400;SDS011;54391;50.000;7.360;2022-12-18T09:53:07;33.72;;;14.98;;
39400;SDS011;54391;50.000;7.360;2022-12-18T09:55:41;24.60;;;13.48;;
39400;SDS011;54391;50.000;7.360;2022-12-18T09:58:12;24.88;;;12.55;;
39400;SDS011;54391;50.000;7.360;2022-12-18T10:00:43;35.35;;;15.13;;
39400;SDS011;54391;50.000;7.360;2022-12-18T10:03:12;33.42;;;14.60;;
39400;SDS011;54391;50.000;7.360;2022-12-18T10:05:42;37.63;;;14.90;;
39400;SDS011;54391;50.000;7.360;2022-12-18T10:08:18;40.22;;;18.30;;
39400;SDS011;54391;50.000;7.360;2022-12-18T10:10:52;33.35;;;13.05;;
39400;SDS011;54391;50.000;7.360;2022-12-18T10:13:26;31.77;;;14.23;;
39400;SDS011;54391;50.000;7.360;2022-12-18T10:16:04;25.95;;;12.10;;
39400;SDS011;54391;50.000;7.360;2022-12-18T10:18:41;44.92;;;16.33;;
39400;SDS011;54391;50.000;7.360;2022-12-18T10:21:28;29.25;;;13.25;;
39400;SDS011;54391;50.000;7.360;2022-12-18T10:24:02;35.80;;;14.73;;
39400;SDS011;54391;50.000;7.360;2022-12-18T10:26:44;35.75;;;13.10;;
39400;SDS011;54391;50.000;7.360;2022-12-18T10:29:12;33.40;;;12.30;;
39400;SDS011;54391;50.000;7.360;2022-12-18T10:31:40;33.20;;;14.65;;
39400;SDS011;54391;50.000;7.360;2022-12-18T10:34:08;32.45;;;15.38;;
39400;SDS011;54391;50.000;7.360;2022-12-18T10:36:36;42.95;;;18.13;;
39400;SDS011;54391;50.000;7.360;2022-12-18T10:39:15;36.65;;;14.90;;
39400;SDS011;54391;50.000;7.360;2022-12-18T10:41:44;34.10;;;15.00;;
39400;SDS011;54391;50.000;7.360;2022-12-18T10:44:12;32.15;;;14.43;;
39400;SDS011;54391;50.000;7.360;2022-12-18T10:46:43;37.05;;;17.30;;
39400;SDS011;54391;50.000;7.360;2022-12-18T10:49:19;33.40;;;15.68;;
39400;SDS011;54391;50.000;7.360;2022-12-18T10:51:49;35.67;;;13.50;;
39400;SDS011;54391;50.000;7.360;2022-12-18T10:54:19;38.55;;;15.63;;
39400;SDS011;54391;50.000;7.360;2022-12-18T10:56:49;41.05;;;20.17;;
39400;SDS011;54391;50.000;7.360;2022-12-18T10:59:17;30.80;;;14.45;;
39400;SDS011;54391;50.000;7.360;2022-12-18T11:01:45;39.00;;;14.25;;
39400;SDS011;54391;50.000;7.360;2022-12-18T11:04:16;44.13;;;19.60;;
39400;SDS011;54391;50.000;7.360;2022-12-18T11:06:52;33.88;;;14.77;;
39400;SDS011;54391;50.000;7.360;2022-12-18T11:09:23;46.33;;;18.10;;
39400;SDS011;54391;50.000;7.360;2022-12-18T11:11:52;35.72;;;14.52;;
39400;SDS011;54391;50.000;7.360;2022-12-18T11:14:22;41.63;;;17.98;;
39400;SDS011;54391;50.000;7.360;2022-12-18T11:16:51;32.45;;;14.60;;
39400;SDS011;54391;50.000;7.360;2022-12-18T11:19:20;29.90;;;12.95;;
39400;SDS011;54391;50.000;7.360;2022-12-18T11:24:25;28.65;;;13.77;;
39400;SDS011;54391;50.000;7.360;2022-12-18T11:26:57;36.88;;;14.90;;
39400;SDS011;54391;50.000;7.360;2022-12-18T11:29:29;41.63;;;16.85;;
39400;SDS011;54391;50.000;7.360;2022-12-18T11:34:51;42.28;;;18.00;;
39400;SDS011;54391;50.000;7.360;2022-12-18T11:37:24;46.60;;;17.95;;
39400;SDS011;54391;50.000;7.360;2022-12-18T11:39:54;36.13;;;16.48;;
39400;SDS011;54391;50.000;7.360;2022-12-18T11:42:32;43.25;;;19.77;;
39400;SDS011;54391;50.000;7.360;2022-12-18T11:45:03;41.40;;;19.38;;
39400;SDS011;54391;50.000;7.360;2022-12-18T11:47:48;43.17;;;17.60;;
39400;SDS011;54391;50.000;7.360;2022-12-18T11:50:24;48.15;;;23.20;;
39400;SDS011;54391;50.000;7.360;2022-12-18T11:52:55;43.38;;;19.58;;
39400;SDS011;54391;50.000;7.360;2022-12-18T11:55:25;36.50;;;14.40;;
39400;SDS011;54391;50.000;7.360;2022-12-18T11:57:59;37.95;;;15.50;;
39400;SDS011;54391;50.000;7.360;2022-12-18T12:00:32;35.88;;;16.13;;
39400;SDS011;54391;50.000;7.360;2022-12-18T12:03:08;38.60;;;15.07;;
39400;SDS011;54391;50.000;7.360;2022-12-18T12:06:05;32.50;;;13.07;;
39400;SDS011;54391;50.000;7.360;2022-12-18T12:08:43;35.00;;;16.02;;
39400;SDS011;54391;50.000;7.360;2022-12-18T12:11:24;31.33;;;14.48;;
39400;SDS011;54391;50.000;7.360;2022-12-18T12:14:02;42.95;;;17.95;;
39400;SDS011;54391;50.000;7.360;2022-12-18T12:16:41;35.53;;;16.30;;
39400;SDS011;54391;50.000;7.360;2022-12-18T12:21:52;47.40;;;17.67;;
39400;SDS011;54391;50.000;7.360;2022-12-18T12:24:27;34.58;;;13.20;;
39400;SDS011;54391;50.000;7.360;2022-12-18T12:27:07;34.80;;;14.07;;
39400;SDS011;54391;50.000;7.360;2022-12-18T12:32:16;28.02;;;13.00;;
39400;SDS011;54391;50.000;7.360;2022-12-18T12:34:54;41.47;;;19.17;;
39400;SDS011;54391;50.000;7.360;2022-12-18T12:37:36;39.55;;;18.05;;
39400;SDS011;54391;50.000;7.360;2022-12-18T12:40:11;50.15;;;20.88;;
39400;SDS011;54391;50.000;7.360;2022-12-18T12:42:45;44.10;;;16.35;;
39400;SDS011;54391;50.000;7.360;2022-12-18T12:45:36;55.35;;;25.42;;
39400;SDS011;54391;50.000;7.360;2022-12-18T12:48:10;44.60;;;15.85;;
39400;SDS011;54391;50.000;7.360;2022-12-18T12:50:42;39.03;;;15.10;;
39400;SDS011;54391;50.000;7.360;2022-12-18T12:53:14;37.72;;;14.90;;
39400;SDS011;54391;50.000;7.360;2022-12-18T12:55:48;48.05;;;20.35;;
39400;SDS011;54391;50.000;7.360;2022-12-18T12:58:19;58.97;;;23.40;;
39400;SDS011;54391;50.000;7.360;2022-12-18T13:01:00;51.35;;;20.10;;
39400;SDS011;54391;50.000;7.360;2022-12-18T13:03:44;35.80;;;14.45;;
39400;SDS011;54391;50.000;7.360;2022-12-18T13:06:19;55.38;;;20.40;;
39400;SDS011;54391;50.000;7.360;2022-12-18T13:08:56;43.10;;;18.73;;
39400;SDS011;54391;50.000;7.360;2022-12-18T13:11:29;54.20;;;23.88;;
39400;SDS011;54391;50.000;7.360;2022-12-18T13:14:27;43.35;;;15.57;;
39400;SDS011;54391;50.000;7.360;2022-12-18T13:17:16;46.50;;;19.70;;
39400;SDS011;54391;50.000;7.360;2022-12-18T13:20:05;42.33;;;14.73;;
39400;SDS011;54391;50.000;7.360;2022-12-18T13:22:35;40.92;;;16.65;;
39400;SDS011;54391;50.000;7.360;2022-12-18T13:28:03;38.45;;;15.05;;
39400;SDS011;54391;50.000;7.360;2022-12-18T13:33:37;36.65;;;16.13;;
39400;SDS011;54391;50.000;7.360;2022-12-18T13:36:14;34.45;;;14.38;;
39400;SDS011;54391;50.000;7.360;2022-12-18T13:38:43;32.80;;;14.95;;
39400;SDS011;54391;50.000;7.360;2022-12-18T13:41:24;51.03;;;20.83;;
39400;SDS011;54391;50.000;7.360;2022-12-18T13:43:54;53.92;;;19.15;;
39400;SDS011;54391;50.000;7.360;2022-12-18T13:46:25;41.00;;;16.38;;
39400;SDS011;54391;50.000;7.360;2022-12-18T13:48:56;31.52;;;14.95;;
39400;SDS011;54391;50.000;7.360;2022-12-18T13:51:28;39.42;;;17.08;;
39400;SDS011;54391;50.000;7.360;2022-12-18T13:53:59;48.80;;;22.85;;
39400;SDS011;54391;50.000;7.360;2022-12-18T13:56:29;54.35;;;20.80;;
39400;SDS011;54391;50.000;7.360;2022-12-18T13:59:18;37.83;;;18.52;;
39400;SDS011;54391;50.000;7.360;2022-12-18T14:01:50;47.55;;;18.85;;
39400;SDS011;54391;50.000;7.360;2022-12-18T14:04:20;40.63;;;16.85;;
39400;SDS011;54391;50.000;7.360;2022-12-18T14:06:51;37.88;;;13.55;;
39400;SDS011;54391;50.000;7.360;2022-12-18T14:09:21;34.55;;;14.32;;
39400;SDS011;54391;50.000;7.360;2022-12-18T14:11:52;33.08;;;12.70;;
39400;SDS011;54391;50.000;7.360;2022-12-18T14:14:43;50.63;;;19.30;;
39400;SDS011;54391;50.000;7.360;2022-12-18T14:17:14;47.00;;;17.30;;
39400;SDS011;54391;50.000;7.360;2022-12-18T14:19:43;46.58;;;23.10;;
39400;SDS011;54391;50.000;7.360;2022-12-18T14:22:14;42.75;;;14.85;;
39400;SDS011;54391;50.000;7.360;2022-12-18T14:24:43;54.67;;;26.25;;
39400;SDS011;54391;50.000;7.360;2022-12-18T14:27:12;31.13;;;13.80;;
39400;SDS011;54391;50.000;7.360;2022-12-18T14:29:47;37.28;;;15.07;;
39400;SDS011;54391;50.000;7.360;2022-12-18T14:32:16;42.67;;;18.20;;
39400;SDS011;54391;50.000;7.360;2022-12-18T14:34:45;32.20;;;13.13;;
39400;SDS011;54391;50.000;7.360;2022-12-18T14:37:14;35.95;;;14.10;;
39400;SDS011;54391;50.000;7.360;2022-12-18T14:39:54;36.40;;;16.08;;
39400;SDS011;54391;50.000;7.360;2022-12-18T14:42:23;45.67;;;18.15;;
39400;SDS011;54391;50.000;7.360;2022-12-18T14:48:00;38.30;;;17.65;;
39400;SDS011;54391;50.000;7.360;2022-12-18T14:50:32;41.17;;;17.05;;
39400;SDS011;54391;50.000;7.360;2022-12-18T14:52:59;42.40;;;20.02;;
39400;SDS011;54391;50.000;7.360;2022-12-18T14:55:28;43.10;;;18.27;;
39400;SDS011;54391;50.000;7.360;2022-12-18T14:57:56;35.15;;;16.23;;
39400;SDS011;54391;50.000;7.360;2022-12-18T15:00:24;37.30;;;16.13;;
39400;SDS011;54391;50.000;7.360;2022-12-18T15:02:53;40.55;;;16.48;;
39400;SDS011;54391;50.000;7.360;2022-12-18T15:05:26;41.85;;;18.38;;
39400;SDS011;54391;50.000;7.360;2022-12-18T15:07:55;48.97;;;22.60;;
39400;SDS011;54391;50.000;7.360;2022-12-18T15:10:25;44.78;;;17.02;;
39400;SDS011;54391;50.000;7.360;2022-12-18T15:13:06;32.67;;;16.70;;
39400;SDS011;54391;50.000;7.360;2022-12-18T15:15:45;36.30;;;16.08;;